createdAt,value
2022-10-05T00:01:33.812Z,2.60
2022-10-05T00:05:33.963Z,2.70
2022-10-05T00:09:32.800Z,2.50
2022-10-05T00:13:32.610Z,2.60
2022-10-05T00:17:10.637Z,2.60
2022-10-05T00:21:25.397Z,3.20
2022-10-05T00:25:24.650Z,2.70
2022-10-05T00:29:24.287Z,3.70
2022-10-05T00:33:22.113Z,2.60
2022-10-05T00:37:34.097Z,2.90
2022-10-05T00:42:00.101Z,2.60
2022-10-05T00:46:34.321Z,3.30
2022-10-05T00:50:50.801Z,2.40
2022-10-05T00:55:13.963Z,2.90
2022-10-05T00:59:44.196Z,2.50
2022-10-05T01:04:13.561Z,2.80
2022-10-05T01:08:48.956Z,2.80
2022-10-05T01:13:45.797Z,3.00
2022-10-05T01:18:03.174Z,3.10
2022-10-05T01:22:14.285Z,3.50
2022-10-05T01:27:04.122Z,2.70
2022-10-05T01:31:33.442Z,2.70
2022-10-05T01:35:55.284Z,2.90
2022-10-05T01:40:06.837Z,3.10
2022-10-05T01:44:15.636Z,2.80
2022-10-05T01:48:29.543Z,3.20
2022-10-05T01:52:48.458Z,3.10
2022-10-05T01:57:11.120Z,2.90
2022-10-05T02:01:32.595Z,3.80
2022-10-05T02:05:41.359Z,3.00
2022-10-05T02:10:02.795Z,2.70
2022-10-05T02:14:11.497Z,3.00
2022-10-05T02:18:16.317Z,2.90
2022-10-05T02:22:39.634Z,2.80
2022-10-05T02:26:40.795Z,2.80
2022-10-05T02:30:54.379Z,3.30
2022-10-05T02:34:52.956Z,3.00
2022-10-05T02:38:53.634Z,4.10
2022-10-05T02:43:10.380Z,3.00
2022-10-05T02:47:34.114Z,2.70
2022-10-05T02:51:40.799Z,3.40
2022-10-05T02:55:57.794Z,2.80
2022-10-05T03:00:33.674Z,3.10
2022-10-05T03:05:17.614Z,3.00
2022-10-05T03:09:21.281Z,2.80
2022-10-05T03:13:52.435Z,3.20
2022-10-05T03:18:30.801Z,3.50
2022-10-05T03:23:04.137Z,3.00
2022-10-05T03:27:15.474Z,3.10
2022-10-05T03:31:36.723Z,3.00
2022-10-05T03:35:35.318Z,2.70
2022-10-05T03:39:48.214Z,2.90
2022-10-05T03:44:25.786Z,2.50
2022-10-05T03:48:35.761Z,2.80
2022-10-05T03:52:56.274Z,2.70
2022-10-05T03:57:07.575Z,2.70
2022-10-05T04:01:13.375Z,2.40
2022-10-05T04:05:12.594Z,3.10
2022-10-05T04:09:15.797Z,3.00
2022-10-05T04:13:40.678Z,2.80
2022-10-05T04:17:43.393Z,3.20
2022-10-05T04:21:48.576Z,3.40
2022-10-05T04:25:52.928Z,4.00
2022-10-05T04:30:00.947Z,2.70
2022-10-05T04:34:26.878Z,2.70
2022-10-05T04:39:11.787Z,2.70
2022-10-05T04:43:30.103Z,3.10
2022-10-05T04:47:58.712Z,4.20
2022-10-05T04:52:06.534Z,3.30
2022-10-05T04:56:18.401Z,3.50
2022-10-05T05:00:57.875Z,2.70
2022-10-05T05:05:21.909Z,3.40
2022-10-05T05:09:40.017Z,3.30
2022-10-05T05:13:17.657Z,3.20
2022-10-05T05:17:32.108Z,3.50
2022-10-05T05:21:42.347Z,2.90
2022-10-05T05:25:56.543Z,3.00
2022-10-05T05:30:19.075Z,2.90
2022-10-05T05:34:37.978Z,4.20
2022-10-05T05:38:50.429Z,3.00
2022-10-05T05:43:30.044Z,3.40
2022-10-05T05:47:41.020Z,3.20
2022-10-05T05:52:16.612Z,2.80
2022-10-05T05:55:38.928Z,3.30
2022-10-05T05:59:33.130Z,3.00
2022-10-05T06:03:43.268Z,3.00
2022-10-05T06:08:02.076Z,3.00
2022-10-05T06:12:42.628Z,3.50
2022-10-05T06:16:49.815Z,3.80
2022-10-05T06:20:57.174Z,2.90
2022-10-05T06:25:12.199Z,3.80
2022-10-05T06:29:19.555Z,3.60
2022-10-05T06:33:46.508Z,3.00
2022-10-05T06:38:15.415Z,2.90
2022-10-05T06:43:00.704Z,3.10
2022-10-05T06:47:23.068Z,3.20
2022-10-05T06:52:22.087Z,3.10
2022-10-05T06:56:31.584Z,3.00
2022-10-05T07:00:44.196Z,2.80
2022-10-05T07:04:52.766Z,3.30
2022-10-05T07:09:25.935Z,3.50
2022-10-05T07:13:47.603Z,3.60
2022-10-05T07:18:18.479Z,3.40
2022-10-05T07:22:54.533Z,3.40
2022-10-05T07:27:20.682Z,3.80
2022-10-05T07:31:49.960Z,3.60
2022-10-05T07:36:27.402Z,3.50
2022-10-05T07:40:38.200Z,3.70
2022-10-05T07:44:48.726Z,3.10
2022-10-05T07:49:16.448Z,3.20
2022-10-05T07:54:10.990Z,3.40
2022-10-05T07:58:48.800Z,3.70
2022-10-05T08:02:58.651Z,3.20
2022-10-05T08:06:32.399Z,3.50
2022-10-05T08:10:47.339Z,3.30
2022-10-05T08:15:00.608Z,3.50
2022-10-05T08:19:21.572Z,3.40
2022-10-05T08:23:19.974Z,3.90
2022-10-05T08:31:52.629Z,4.00
2022-10-05T08:36:13.260Z,3.70
2022-10-05T08:39:49.524Z,3.70
2022-10-05T08:44:00.352Z,3.40
2022-10-05T08:48:38.678Z,3.80
2022-10-05T08:53:20.382Z,3.20
2022-10-05T08:56:28.811Z,3.70
2022-10-05T09:00:53.360Z,3.20
2022-10-05T09:05:12.209Z,3.70
2022-10-05T09:09:06.712Z,3.80
2022-10-05T09:13:31.823Z,3.70
2022-10-05T09:18:09.399Z,3.30
2022-10-05T09:22:38.912Z,3.90
2022-10-05T09:27:02.733Z,3.80
2022-10-05T09:31:23.342Z,4.00
2022-10-05T09:35:43.626Z,3.70
2022-10-05T09:45:08.846Z,3.30
2022-10-05T09:48:39.707Z,3.90
2022-10-05T09:53:07.652Z,4.00
2022-10-05T09:56:21.580Z,3.90
2022-10-05T10:00:29.131Z,3.60
2022-10-05T10:05:07.207Z,4.10
2022-10-05T10:08:48.054Z,4.50
2022-10-05T10:12:14.272Z,3.90
2022-10-05T10:16:26.451Z,3.80
2022-10-05T10:20:31.312Z,4.10
2022-10-05T10:24:49.371Z,4.60
2022-10-05T10:28:24.162Z,4.10
2022-10-05T10:33:00.037Z,4.20
2022-10-05T10:37:04.327Z,4.60
2022-10-05T10:41:38.464Z,4.20
2022-10-05T10:46:06.812Z,3.70
2022-10-05T10:50:08.493Z,3.10
2022-10-05T10:54:04.235Z,3.50
2022-10-05T10:58:21.526Z,3.20
2022-10-05T11:02:37.562Z,4.00
2022-10-05T11:07:11.987Z,3.70
2022-10-05T11:11:31.138Z,4.60
2022-10-05T11:15:09.833Z,4.40
2022-10-05T11:20:02.927Z,3.80
2022-10-05T11:24:29.750Z,3.80
2022-10-05T11:29:06.126Z,3.90
2022-10-05T11:33:44.307Z,3.70
2022-10-05T11:38:20.440Z,4.00
2022-10-05T11:42:40.013Z,3.60
2022-10-05T11:46:59.141Z,4.00
2022-10-05T11:50:55.502Z,3.20
2022-10-05T11:55:12.626Z,3.20
2022-10-05T11:59:17.044Z,4.10
2022-10-05T12:03:30.811Z,3.40
2022-10-05T12:08:12.135Z,3.40
2022-10-05T12:12:27.576Z,4.00
2022-10-05T12:16:45.398Z,2.80
2022-10-05T12:21:09.610Z,2.90
2022-10-05T12:25:17.344Z,3.10
2022-10-05T12:29:36.121Z,3.00
2022-10-05T12:34:09.497Z,3.80
2022-10-05T12:38:41.335Z,3.10
2022-10-05T12:43:05.829Z,3.40
2022-10-05T12:46:50.114Z,3.20
2022-10-05T12:50:54.941Z,3.20
2022-10-05T12:55:26.240Z,3.20
2022-10-05T12:59:38.295Z,3.40
2022-10-05T13:03:52.832Z,3.50
2022-10-05T13:08:08.998Z,3.50
2022-10-05T13:12:49.366Z,3.80
2022-10-05T13:17:06.997Z,3.50
2022-10-05T13:21:31.045Z,3.80
2022-10-05T13:26:19.859Z,4.00
2022-10-05T13:30:22.511Z,3.90
2022-10-05T13:42:05.074Z,3.50
2022-10-05T13:46:16.057Z,3.90
2022-10-05T13:50:50.123Z,4.40
2022-10-05T13:55:07.302Z,3.60
2022-10-05T13:59:17.973Z,3.70
2022-10-05T14:03:37.642Z,3.90
2022-10-05T14:07:49.465Z,3.40
2022-10-05T14:11:51.832Z,4.30
2022-10-05T14:16:14.428Z,4.30
2022-10-05T14:19:48.937Z,3.70
2022-10-05T14:23:32.754Z,4.00
2022-10-05T14:26:59.800Z,4.20
2022-10-05T14:30:35.584Z,4.40
2022-10-05T14:34:35.659Z,4.40
2022-10-05T14:38:00.503Z,4.70
2022-10-05T14:41:28.649Z,4.10
2022-10-05T14:45:22.008Z,4.70
2022-10-05T14:48:44.593Z,4.00
2022-10-05T14:52:33.015Z,4.20
2022-10-05T14:56:25.599Z,4.30
2022-10-05T14:59:55.315Z,4.40
2022-10-05T15:03:32.576Z,4.00
2022-10-05T15:07:32.422Z,4.40
2022-10-05T15:10:43.750Z,4.50
2022-10-05T15:14:43.763Z,3.90
2022-10-05T15:17:52.771Z,4.30
2022-10-05T15:21:35.726Z,4.20
2022-10-05T15:25:11.772Z,4.20
2022-10-05T15:28:51.722Z,4.70
2022-10-05T15:32:31.434Z,5.20
2022-10-05T15:36:12.708Z,4.30
2022-10-05T15:39:54.967Z,4.90
2022-10-05T15:43:16.702Z,4.70
2022-10-05T15:46:51.399Z,4.90
2022-10-05T15:50:19.341Z,4.50
2022-10-05T15:54:30.982Z,4.50
2022-10-05T15:57:58.475Z,4.30
2022-10-05T16:01:10.827Z,5.10
2022-10-05T16:05:04.494Z,5.00
2022-10-05T16:08:56.075Z,4.50
2022-10-05T16:12:28.786Z,4.30
2022-10-05T16:15:48.740Z,4.50
2022-10-05T16:19:27.321Z,4.80
2022-10-05T16:26:51.995Z,4.60
2022-10-05T16:30:09.790Z,4.30
2022-10-05T16:33:54.620Z,5.50
2022-10-05T16:37:38.795Z,5.20
2022-10-05T16:41:10.159Z,5.20
2022-10-05T16:44:34.176Z,4.10
2022-10-05T16:48:13.645Z,4.80
2022-10-05T16:52:10.955Z,4.90
2022-10-05T16:55:35.801Z,5.40
2022-10-05T16:59:04.555Z,4.80
2022-10-05T17:02:56.769Z,5.20
2022-10-05T17:06:21.081Z,5.50
2022-10-05T17:10:11.919Z,5.10
2022-10-05T17:13:50.364Z,5.30
2022-10-05T17:17:08.372Z,4.90
2022-10-05T17:20:42.568Z,4.70
2022-10-05T17:24:51.918Z,5.60
2022-10-05T17:28:11.960Z,5.70
2022-10-05T17:31:31.429Z,5.80
2022-10-05T17:35:20.466Z,5.90
2022-10-05T17:38:52.384Z,5.90
2022-10-05T17:42:34.555Z,5.80
2022-10-05T17:46:06.939Z,6.10
2022-10-05T17:49:40.041Z,6.60
2022-10-05T17:53:57.090Z,7.10
2022-10-05T17:56:57.463Z,7.10
2022-10-05T18:01:01.882Z,7.30
2022-10-05T18:04:13.701Z,7.40
2022-10-05T18:08:08.606Z,7.10
2022-10-05T18:11:38.041Z,7.00
2022-10-05T18:15:05.612Z,6.70
2022-10-05T18:18:44.195Z,7.70
2022-10-05T18:22:18.011Z,7.60
2022-10-05T18:25:51.270Z,8.20
2022-10-05T18:29:56.510Z,7.80
2022-10-05T18:33:40.534Z,8.00
2022-10-05T18:36:55.123Z,7.60
2022-10-05T18:40:42.187Z,7.90
2022-10-05T18:44:16.486Z,7.70
2022-10-05T18:47:59.254Z,8.00
2022-10-05T18:51:39.409Z,7.50
2022-10-05T18:55:10.561Z,8.50
2022-10-05T18:58:56.749Z,7.70
2022-10-05T19:02:13.667Z,8.20
2022-10-05T19:05:55.591Z,8.40
2022-10-05T19:19:43.760Z,8.80
2022-10-05T19:23:23.621Z,8.00
2022-10-05T19:27:10.004Z,9.10
2022-10-05T19:30:44.135Z,8.80
2022-10-05T19:34:04.961Z,7.70
2022-10-05T19:37:34.224Z,9.80
2022-10-05T19:40:59.562Z,8.20
2022-10-05T19:44:59.671Z,8.70
2022-10-05T19:48:20.371Z,8.30
2022-10-05T19:51:51.335Z,8.70
2022-10-05T19:55:34.852Z,8.80
2022-10-05T19:59:27.681Z,9.20
2022-10-05T20:02:42.203Z,8.50
2022-10-05T20:06:24.986Z,8.50
2022-10-05T20:10:05.295Z,8.30
2022-10-05T20:13:36.959Z,9.70
2022-10-05T20:17:49.946Z,8.90
2022-10-05T20:20:55.657Z,8.70
2022-10-05T20:24:51.219Z,9.50
2022-10-05T20:28:08.141Z,8.40
2022-10-05T20:31:42.071Z,8.80
2022-10-05T20:35:23.123Z,8.40
2022-10-05T20:39:00.232Z,9.40
2022-10-05T20:42:32.243Z,9.00
2022-10-05T20:46:08.967Z,7.70
2022-10-05T20:49:49.625Z,9.40
2022-10-05T20:57:01.053Z,9.20
2022-10-05T21:00:55.118Z,9.40
2022-10-05T21:04:13.416Z,10.30
2022-10-05T21:07:49.927Z,9.50
2022-10-05T21:11:27.131Z,9.50
2022-10-05T21:15:07.228Z,9.30
2022-10-05T21:18:41.236Z,10.30
2022-10-05T21:22:16.860Z,10.10
2022-10-05T21:25:55.164Z,9.80
2022-10-05T21:29:31.666Z,9.10
2022-10-05T21:33:07.425Z,9.90
2022-10-05T21:47:13.018Z,10.20
2022-10-05T21:50:13.306Z,9.30
2022-10-05T21:54:14.080Z,9.80
2022-10-05T21:57:27.338Z,8.10
2022-10-05T22:01:03.904Z,9.60
2022-10-05T22:04:40.755Z,8.50
2022-10-05T22:08:27.640Z,9.50
2022-10-05T22:11:55.036Z,8.70
2022-10-05T22:15:32.145Z,9.30
2022-10-05T22:19:16.244Z,9.00
2022-10-05T22:22:44.744Z,9.40
2022-10-05T22:26:23.330Z,9.60
2022-10-05T22:29:58.881Z,9.00
2022-10-05T22:33:43.481Z,8.70
2022-10-05T22:37:13.342Z,9.80
2022-10-05T22:40:48.917Z,8.90
2022-10-05T22:44:25.997Z,9.30
2022-10-05T22:48:02.261Z,8.20
2022-10-05T22:51:39.336Z,9.20
2022-10-05T22:55:16.194Z,8.50
2022-10-05T22:58:52.893Z,8.20
2022-10-05T23:02:35.780Z,8.30
2022-10-05T23:06:09.802Z,7.40
2022-10-05T23:09:43.724Z,6.90
2022-10-05T23:13:21.221Z,6.20
2022-10-05T23:17:00.064Z,5.40
2022-10-05T23:20:39.738Z,6.10
2022-10-05T23:24:10.524Z,5.50
2022-10-05T23:27:49.779Z,5.40
2022-10-05T23:31:30.365Z,6.40
2022-10-05T23:35:04.597Z,5.10
2022-10-05T23:38:48.805Z,5.70
2022-10-05T23:42:24.282Z,5.60
2022-10-05T23:45:51.546Z,5.50
2022-10-05T23:49:28.450Z,5.50
2022-10-05T23:53:05.202Z,5.00
2022-10-05T23:56:42.822Z,4.80
